Home   Weather   Finland   Espoo   Past weeks
Flag for Finland

Past Weather in Espoo, Finland — Yesterday and Last 2 Weeks

Currently: 81 °F. Sunny. (Weather station: Helsinki-Vantaa, Finland). See more current weather

Past Weather in Espoo — Graph

°F

Espoo Temperature Yesterday

Maximum temperature yesterday: 72 °F (at 2:50 pm)
Minimum temperature yesterday: 50 °F (at 3:20 am)
Average temperature yesterday: 63 °F

High & Low Weather Summary for the Past Weeks

 TemperatureHumidityPressure
High81 °F (Jun 18, 2:50 pm)100% (Jun 7, 11:20 pm)30.48 "Hg (Jun 7, 11:20 pm)
Low45 °F (Jun 14, 4:20 am)31% (Jun 9, 4:20 pm)29.53 "Hg (Jun 12, 4:20 pm)
Average63 °F64%30.00 "Hg
* Reported Jun 3 2:20 pm — Jun 18 2:50 pm, Espoo. Weather by CustomWeather, © 2021

Note: Actual official high and low records may vary slightly from our data, if they occured in-between our weather recording intervals... More about our weather records

Espoo Weather History for the Previous 24 Hours

Scroll right to see more
 ConditionsComfort  
Time TempWeatherWind HumidityBarometerVisibility
2:50 pm
Fri, Jun 18
81 °FSunny.16 mph45%30.07 "Hg10 mi
2:20 pm79 °FSunny.15 mph48%30.07 "Hg10 mi
1:50 pm77 °FPassing clouds.15 mph47%30.07 "HgN/A
1:20 pm77 °FPassing clouds.16 mph47%30.07 "HgN/A
12:50 pm75 °FPassing clouds.15 mph50%30.09 "HgN/A
12:20 pm73 °FSunny.13 mph50%30.09 "Hg10 mi
11:50 am75 °FSunny.15 mph50%30.09 "Hg10 mi
11:20 am73 °FSunny.13 mph57%30.09 "Hg10 mi
10:50 am72 °FPassing clouds.10 mph57%30.09 "HgN/A
10:20 am72 °FPassing clouds.10 mph61%30.09 "HgN/A
9:50 am70 °FPassing clouds.8 mph60%30.09 "HgN/A
9:20 am70 °FPassing clouds.8 mph60%30.09 "HgN/A
8:50 am68 °FPassing clouds.6 mph64%30.09 "HgN/A
7:50 am64 °FSunny.9 mph73%30.12 "Hg10 mi
7:20 am64 °FSunny.9 mph68%30.09 "Hg10 mi
6:50 am61 °FPassing clouds.6 mph77%30.12 "HgN/A
6:20 am59 °FSunny.5 mph77%30.12 "Hg10 mi
5:50 am55 °FSunny.3 mph88%30.12 "Hg10 mi
5:20 am52 °FSunny.2 mph94%30.12 "Hg10 mi
4:50 am50 °FSunny.3 mph94%30.12 "Hg10 mi
4:20 am48 °FSunny.3 mph100%30.15 "Hg10 mi
3:50 am48 °FClear.2 mph100%30.15 "Hg10 mi
3:20 am48 °FClear.No wind100%30.15 "Hg10 mi
2:50 am48 °FClear.2 mph100%30.15 "Hg10 mi
2:20 am52 °FClear.1 mph94%30.15 "Hg10 mi
1:50 am54 °FClear.7 mph88%30.15 "Hg10 mi
1:20 am59 °FClear.7 mph72%30.15 "Hg10 mi
12:50 am59 °FClear.8 mph72%30.15 "Hg10 mi
12:20 am59 °FClear.9 mph77%30.15 "Hg10 mi
11:50 pm
Thu, Jun 17
59 °FClear.8 mph77%30.15 "Hg10 mi
11:20 pm59 °FPassing clouds.8 mph77%30.15 "HgN/A
10:50 pm59 °FClear.9 mph82%30.15 "Hg10 mi
10:20 pm63 °FSunny.10 mph73%30.15 "Hg10 mi
9:50 pm64 °FSunny.10 mph64%30.15 "Hg10 mi
9:20 pm66 °FSunny.9 mph60%30.15 "Hg10 mi
8:50 pm68 °FSunny.10 mph53%30.15 "Hg10 mi
8:20 pm70 °FSunny.12 mph46%30.15 "Hg10 mi
7:50 pm70 °FSunny.14 mph43%30.15 "Hg10 mi
7:20 pm72 °FSunny.14 mph41%30.18 "Hg10 mi
6:50 pm72 °FSunny.15 mph38%30.18 "Hg10 mi
6:20 pm72 °FSunny.14 mph44%30.18 "Hg10 mi
5:50 pm72 °FPassing clouds.15 mph47%30.18 "HgN/A
5:20 pm72 °FSunny.13 mph44%30.18 "Hg10 mi
4:50 pm72 °FSunny.14 mph41%30.18 "Hg10 mi
4:20 pm72 °FSunny.12 mph44%30.18 "Hg10 mi
3:50 pm72 °FPassing clouds.14 mph47%30.18 "HgN/A
3:20 pm72 °FPassing clouds.14 mph50%30.18 "HgN/A
Weather by CustomWeather, © 2021

See weather overview